Latest Weather Observations for Goulburn Airport

IDN60801

Issued at 4:05 pm EST Tuesday 23 September 2014 (issued every 30 minutes, with the page automatically refreshed every 10 minutes)

About weather observations | Map of weather stations | Latest weather observations for NSW | Other Formats
Station Details ID: 070330 Name: GOULBURN AIRPORT AWS Lat: -34.81 Lon: 149.73 Height: 640.0 m
Data from the previous 72 hours. | See also: Recent months at Goulburn Airport
Date/Time
EST
Temp
°C
App
Temp
°C
Dew
Point
Rel
Hum
%
Delta-T
°C
Wind Press
QNH
hPa
Press
MSL
hPa
Rain
since 9 am
mm
Dir
 
Spd
km/h
Gust
km/h
Spd
kts
Gust
kts
23/04:00pm 20.2 17.1 3.4 33 8.2 SE 9 17 5 9 1025.2 1025.3 0.2
23/03:30pm 20.4 17.3 3.6 33 8.2 S 9 11 5 6 1025.2 1025.3 0.2
23/03:00pm 20.6 18.1 3.8 33 8.3 SSW 6 13 3 7 1025.5 1025.6 0.2
23/02:30pm 20.4 17.6 3.2 32 8.4 NW 7 13 4 7 1025.6 1025.7 0.2
23/02:00pm 20.4 17.9 3.6 33 8.2 W 6 11 3 6 1025.9 1026.0 0.2
23/01:30pm 19.8 16.8 2.2 31 8.4 N 7 11 4 6 1026.2 1026.4 0.2
23/01:00pm 19.4 16.8 3.2 34 7.8 SSE 6 11 3 6 1026.8 1026.9 0.2
23/12:30pm 19.0 15.7 2.4 33 7.9 S 9 13 5 7 1027.3 1027.4 0.2
23/12:00pm 18.6 15.9 2.9 35 7.5 SSE 6 9 3 5 1027.8 1028.0 0.2
23/11:30am 18.2 15.8 5.1 42 6.5 SW 7 11 4 6 1028.0 1028.2 0.2
23/11:00am 17.5 15.5 6.1 47 5.7 NNW 6 9 3 5 1028.5 1028.6 0.2
23/10:30am 16.3 14.4 6.7 53 4.9 WNW 6 11 3 6 1029.2 1029.4 0.0
23/10:00am 14.2 12.7 9.0 71 2.7 W 7 9 4 5 1029.5 1029.7 0.0
23/09:30am 11.6 11.5 9.3 86 1.2 CALM 0 7 0 4 1029.5 1029.7 0.0
23/09:05am 8.9 7.9 8.8 99 0.1 NNE 4 7 2 4 1030.0 1030.1 0.0
23/09:00am 8.7 7.2 8.6 99 0.0 NNE 6 7 3 4 1030.1 1030.2 0.0
23/08:30am 6.7 5.5 6.6 99 0.0 NNE 2 7 1 4 1030.5 1030.7 0.0
23/08:00am 5.4 4.3 5.3 99 0.0 CALM 0 0 0 0 1030.5 1030.7 0.0
23/07:30am 4.2 1.8 4.1 99 0.0 NW 6 7 3 4 1030.5 1030.7 0.0
23/07:00am 4.1 2.4 4.0 99 0.0 SSW 2 6 1 3 1030.2 1030.3 0.0
23/06:30am 3.7 2.3 3.4 98 0.1 CALM 0 0 0 0 1030.1 1030.2 0.0
23/06:00am 3.4 1.9 3.1 98 0.1 WSW 0 0 0 0 1029.9 1030.0 0.0
23/05:30am 4.2 2.9 3.9 98 0.1 CALM 0 0 0 0 1029.6 1029.8 0.0
23/05:00am 4.5 3.2 4.2 98 0.1 CALM 0 0 0 0 1029.5 1029.7 0.0
23/04:30am 4.3 1.8 4.0 98 0.1 N 6 7 3 4 1029.4 1029.6 0.0
23/04:00am 4.0 2.6 3.7 98 0.1 CALM 0 0 0 0 1029.2 1029.4 0.0
23/03:30am 4.0 2.6 3.7 98 0.1 CALM 0 0 0 0 1029.1 1029.3 0.0
23/03:00am 3.5 2.0 3.1 97 0.2 CALM 0 0 0 0 1029.3 1029.5 0.0
23/02:30am 3.2 1.7 2.8 97 0.2 CALM 0 0 0 0 1029.3 1029.5 0.0
23/02:00am 2.7 1.0 2.1 96 0.2 CALM 0 0 0 0 1029.3 1029.5 0.0
23/01:30am 2.7 1.0 2.1 96 0.2 CALM 0 0 0 0 1029.5 1029.7 0.0
23/01:07am 2.9 1.3 2.2 95 0.3 CALM 0 4 0 2 1029.7 1029.9 0.0
23/01:00am 3.3 1.0 2.6 95 0.3 SSE 4 6 2 3 1029.7 1029.9 0.0
23/12:30am 3.6 2.1 3.0 96 0.3 CALM 0 0 0 0 1029.9 1030.0 0.0
23/12:00am 4.5 3.1 3.8 95 0.3 SSW 0 0 0 0 1030.0 1030.1 0.0
 
Date/Time
EST
Temp
°C
App
Temp
°C
Dew
Point
Rel
Hum
%
Delta-T
°C
Wind Press
QNH
hPa
Press
MSL
hPa
Rain
since 9 am
mm
Dir
 
Spd
km/h
Gust
km/h
Spd
kts
Gust
kts
22/11:30pm 5.1 3.4 4.2 94 0.4 SSW 2 6 1 3 1030.1 1030.2 0.0
22/11:00pm 5.6 3.6 4.6 93 0.4 SW 4 9 2 5 1030.3 1030.5 0.0
22/10:30pm 6.3 5.2 4.9 91 0.6 SW 0 4 0 2 1030.3 1030.5 0.0
22/10:00pm 7.1 4.7 5.4 89 0.8 S 7 9 4 5 1030.3 1030.5 0.0
22/09:30pm 9.4 7.6 7.0 85 1.2 ENE 6 9 3 5 1030.2 1030.3 0.0
22/09:00pm 10.1 8.1 7.3 83 1.4 NNW 7 13 4 7 1030.1 1030.2 0.0
22/08:30pm 10.5 8.8 7.7 83 1.4 NE 6 7 3 4 1029.9 1030.0 0.0
22/08:00pm 10.6 8.9 8.4 86 1.1 WNW 7 9 4 5 1029.6 1029.8 0.0
22/07:30pm 11.0 9.4 8.0 82 1.5 ESE 6 7 3 4 1029.4 1029.6 0.0
22/07:00pm 12.4 9.6 8.5 77 2.0 ENE 13 17 7 9 1029.1 1029.3 0.0
22/06:30pm 12.8 10.3 8.1 73 2.4 E 11 15 6 8 1028.8 1028.9 0.0
22/06:00pm 12.9 10.7 6.3 64 3.2 WSW 7 9 4 5 1028.1 1028.3 0.0
22/05:30pm 16.7 14.7 7.1 53 4.9 SW 7 9 4 5 1028.0 1028.2 0.0
22/05:00pm 18.5 16.2 4.7 40 6.8 SW 6 9 3 5 1027.9 1028.1 0.0
22/04:30pm 18.3 15.5 5.2 42 6.6 S 9 13 5 7 1027.8 1028.0 0.0
22/04:00pm 18.2 15.7 3.7 38 7.0 S 6 11 3 6 1027.9 1028.1 0.0
22/03:30pm 18.3 15.6 3.8 38 7.1 SSW 7 11 4 6 1028.0 1028.2 0.0
22/03:00pm 18.2 15.8 5.1 42 6.5 S 7 9 4 5 1028.1 1028.3 0.0
22/02:30pm 18.2 14.9 4.4 40 6.8 S 11 15 6 8 1028.4 1028.5 0.0
22/02:00pm 18.2 15.5 5.8 44 6.2 WSW 9 13 5 7 1028.7 1028.8 0.0
22/01:30pm 17.6 14.9 3.9 40 6.6 E 7 13 4 7 1028.9 1029.1 0.0
22/01:00pm 17.3 14.5 5.3 45 5.9 SSE 9 15 5 8 1029.2 1029.4 0.0
22/12:30pm 17.3 14.8 4.9 44 6.1 WSW 7 9 4 5 1029.6 1029.8 0.0
22/12:00pm 16.9 14.7 6.4 50 5.3 S 7 13 4 7 1030.1 1030.2 0.0
22/11:30am 15.9 13.5 5.2 49 5.3 SW 7 13 4 7 1030.6 1030.8 0.0
22/11:00am 16.0 13.5 6.7 54 4.7 SSW 9 13 5 7 1031.0 1031.2 0.0
22/10:30am 15.0 13.0 6.3 56 4.4 E 6 9 3 5 1031.6 1031.7 0.0
22/10:00am 13.8 12.1 5.9 59 3.9 W 4 9 2 5 1031.8 1032.0 0.0
22/09:30am 12.7 11.1 8.2 74 2.3 S 6 11 3 6 1031.8 1032.0 0.0
22/09:00am 11.5 9.8 7.6 77 1.9 SSE 6 7 3 4 1031.8 1032.0 0.0
22/08:30am 9.6 7.8 7.2 85 1.2 S 6 9 3 5 1031.9 1032.1 0.0
22/08:07am 8.8 7.1 7.6 92 0.6 S 6 7 3 4 1031.8 1032.0 0.0
22/08:00am 8.4 6.7 7.6 95 0.4 S 6 7 3 4 1031.8 1032.0 0.0
22/07:30am 7.7 5.8 7.4 98 0.1 S 7 9 4 5 1031.7 1031.9 0.0
22/07:00am 7.2 5.2 6.9 98 0.1 W 7 11 4 6 1031.4 1031.6 0.0
22/06:30am 5.2 2.7 4.8 97 0.2 N 7 9 4 5 1031.2 1031.4 0.0
22/06:00am 2.8 1.2 2.2 96 0.2 CALM 0 0 0 0 1030.8 1031.0 0.0
22/05:30am 3.4 1.9 2.8 96 0.3 CALM 0 0 0 0 1030.4 1030.6 0.0
22/05:00am 3.3 1.7 2.7 96 0.2 CALM 0 0 0 0 1030.1 1030.2 0.0
22/04:30am 2.9 1.3 2.3 96 0.2 CALM 0 0 0 0 1029.9 1030.0 0.0
22/04:27am 3.3 1.7 2.7 96 0.3 CALM 0 0 0 0 1029.9 1030.0 0.0
22/04:13am 3.6 1.3 3.0 96 0.3 SSW 4 6 2 3 1029.9 1030.0 0.0
22/04:00am 3.2 1.6 2.5 95 0.3 CALM 0 2 0 1 1029.6 1029.8 0.0
22/03:51am 3.2 0.9 2.5 95 0.3 S 4 7 2 4 1029.6 1029.8 0.0
22/03:30am 3.9 1.3 3.3 96 0.3 SSE 6 7 3 4 1029.5 1029.7 0.0
22/03:00am 4.5 2.0 3.6 94 0.4 SE 6 9 3 5 1029.6 1029.8 0.0
22/02:30am 4.8 3.4 3.6 92 0.5 CALM 0 0 0 0 1029.7 1029.9 0.0
22/02:00am 6.3 3.7 4.1 86 1.0 ENE 7 7 4 4 1029.7 1029.9 0.0
22/01:45am 7.9 5.3 6.0 88 0.9 ENE 9 9 5 5 1029.9 1030.0 0.0
22/01:30am 8.6 6.4 6.4 86 1.1 ENE 7 7 4 4 1030.1 1030.2 0.0
22/01:00am 9.6 6.4 7.0 84 1.3 NE 13 19 7 10 1030.4 1030.6 0.0
22/12:30am 9.6 7.2 7.0 84 1.3 NE 9 11 5 6 1030.7 1030.9 0.0
22/12:00am 9.5 7.1 6.9 84 1.3 E 9 13 5 7 1030.6 1030.8 0.0
 
Date/Time
EST
Temp
°C
App
Temp
°C
Dew
Point
Rel
Hum
%
Delta-T
°C
Wind Press
QNH
hPa
Press
MSL
hPa
Rain
since 9 am
mm
Dir
 
Spd
km/h
Gust
km/h
Spd
kts
Gust
kts
21/11:30pm 9.4 7.4 7.0 85 1.2 E 7 11 4 6 1030.8 1031.0 0.0
21/11:00pm 9.5 7.1 7.1 85 1.2 E 9 11 5 6 1030.9 1031.1 0.0
21/10:30pm 9.5 6.7 7.1 85 1.2 E 11 17 6 9 1031.0 1031.2 0.0
21/10:00pm 9.5 6.3 6.9 84 1.3 E 13 17 7 9 1031.1 1031.3 0.0
21/09:30pm 9.5 5.2 7.1 85 1.2 E 19 22 10 12 1031.1 1031.3 0.0
21/09:00pm 9.7 7.4 7.5 86 1.1 NE 9 17 5 9 1031.0 1031.2 0.0
21/08:30pm 9.6 6.5 7.4 86 1.1 E 13 19 7 10 1030.6 1030.8 0.0
21/08:00pm 9.5 7.2 7.3 86 1.1 ESE 9 17 5 9 1030.1 1030.2 0.0
21/07:57pm 9.4 7.0 7.2 86 1.1 E 9 17 5 9 1030.1 1030.2 0.0
21/07:30pm 9.4 7.0 7.2 86 1.1 ESE 9 17 5 9 1029.4 1029.6 0.0
21/07:00pm 9.7 7.0 7.3 85 1.2 E 11 17 6 9 1028.8 1028.9 0.0
21/06:30pm 8.8 7.4 3.6 70 2.3 CALM 0 13 0 7 1027.9 1028.1 0.0
21/06:00pm 12.1 10.7 3.6 56 3.9 CALM 0 0 0 0 1027.5 1027.6 0.0
21/05:30pm 14.8 12.7 3.9 48 5.2 NNE 4 6 2 3 1027.4 1027.5 0.0
21/05:00pm 15.8 13.9 2.9 42 6.0 NNW 2 7 1 4 1027.3 1027.4 0.0
21/04:30pm 16.4 13.7 2.8 40 6.4 WSW 6 7 3 4 1027.3 1027.4 0.0
21/04:00pm 16.5 14.3 3.6 42 6.1 SSE 4 9 2 5 1027.2 1027.3 0.0
21/03:30pm 16.2 13.2 4.3 45 5.8 S 9 17 5 9 1027.3 1027.4 0.0
21/03:00pm 16.3 13.4 4.7 46 5.6 WSW 9 15 5 8 1027.4 1027.5 0.0
21/02:30pm 15.7 12.9 5.0 49 5.2 S 9 15 5 8 1027.6 1027.8 0.0
21/02:00pm 15.7 12.2 5.6 51 5.0 S 13 19 7 10 1027.8 1028.0 0.0
21/01:30pm 15.9 13.0 6.6 54 4.7 WSW 11 19 6 10 1028.0 1028.2 0.0
21/01:00pm 15.2 11.7 5.4 52 4.8 W 13 19 7 10 1028.4 1028.5 0.0
21/12:30pm 14.4 11.2 5.2 54 4.5 NW 11 17 6 9 1028.8 1028.9 0.0
21/12:00pm 13.9 11.7 6.0 59 3.9 W 7 17 4 9 1029.3 1029.5 0.0
21/11:30am 13.6 11.5 6.7 63 3.4 WNW 7 13 4 7 1030.0 1030.1 0.0
21/11:00am 13.0 10.6 7.0 67 3.0 SSW 9 15 5 8 1030.4 1030.6 0.0
21/10:30am 11.8 9.6 5.4 65 3.1 SSW 6 9 3 5 1030.6 1030.8 0.0
21/10:00am 10.9 8.2 5.7 70 2.5 SSE 9 15 5 8 1031.0 1031.2 0.0
21/09:30am 10.1 7.9 6.1 76 1.9 SE 7 9 4 5 1031.0 1031.2 0.0
21/09:28am 10.0 7.7 5.8 75 2.0 SE 7 9 4 5 1031.0 1031.2 0.0
21/09:00am 8.8 6.6 7.7 93 0.5 SSE 9 15 5 8 1031.1 1031.3 0.0
21/08:30am 7.5 6.5 7.4 99 0.0 SW 2 6 1 3 1030.8 1031.0 0.0
21/08:00am 6.4 5.6 6.3 99 0.0 CALM 0 6 0 3 1030.4 1030.6 0.0
21/07:30am 4.1 2.4 3.8 98 0.1 SE 2 6 1 3 1030.1 1030.2 0.0
21/07:00am 2.3 -0.7 2.0 98 0.1 SE 7 9 4 5 1029.6 1029.8 0.0
21/06:30am 0.5 -2.6 0.1 97 0.2 ESE 6 7 3 4 1028.8 1028.9 0.0
21/06:00am 0.6 -2.5 0.0 96 0.2 E 6 9 3 5 1028.6 1028.7 0.0
21/05:30am 1.5 -0.3 1.1 97 0.2 CALM 0 0 0 0 1028.3 1028.4 0.0
21/05:00am 1.7 -0.1 1.3 97 0.2 CALM 0 0 0 0 1027.8 1028.0 0.0
21/04:30am 2.0 0.3 1.6 97 0.2 CALM 0 0 0 0 1027.6 1027.8 0.0
21/04:08am 2.3 0.6 1.9 97 0.2 CALM 0 0 0 0 1027.3 1027.4 0.0
21/04:00am 2.3 0.6 1.9 97 0.2 CALM 0 4 0 2 1027.4 1027.5 0.0
21/03:30am 1.9 -0.2 1.5 97 0.2 NE 2 6 1 3 1027.6 1027.8 0.0
21/03:00am 0.1 -2.7 -0.5 96 0.2 SSE 4 6 2 3 1027.7 1027.9 0.0
21/02:58am 0.0 -2.8 -0.6 96 0.2 SSE 4 6 2 3 1027.7 1027.9 0.0
21/02:30am 0.0 -2.5 -0.7 95 0.3 S 2 7 1 4 1027.8 1028.0 0.0
21/02:00am 0.7 -1.3 0.0 95 0.3 CALM 0 0 0 0 1028.0 1028.2 0.0
21/01:30am 0.8 -1.2 -0.1 94 0.3 CALM 0 0 0 0 1028.4 1028.5 0.0
21/01:00am 1.4 -0.5 0.5 94 0.3 CALM 0 0 0 0 1028.7 1028.8 0.0
21/12:30am 1.1 -0.9 0.1 93 0.4 CALM 0 0 0 0 1028.7 1028.8 0.0
21/12:00am 2.0 0.2 1.1 94 0.4 CALM 0 0 0 0 1028.6 1028.7 0.0
 
Date/Time
EST
Temp
°C
App
Temp
°C
Dew
Point
Rel
Hum
%
Delta-T
°C
Wind Press
QNH
hPa
Press
MSL
hPa
Rain
since 9 am
mm
Dir
 
Spd
km/h
Gust
km/h
Spd
kts
Gust
kts
20/11:30pm 2.2 -0.9 1.2 93 0.4 S 7 9 4 5 1028.6 1028.7 0.0
20/11:00pm 2.7 0.2 1.7 93 0.4 SSW 4 7 2 4 1028.6 1028.7 0.0
20/10:30pm 3.0 1.2 1.4 89 0.6 CALM 0 7 0 4 1028.8 1028.9 0.0
20/10:00pm 3.9 0.9 1.9 87 0.8 S 7 9 4 5 1028.7 1028.8 0.0
20/09:30pm 4.7 1.9 2.9 88 0.8 SE 7 9 4 5 1028.5 1028.6 0.0
20/09:00pm 5.0 2.2 2.0 81 1.2 SSE 6 7 3 4 1028.3 1028.4 0.0
20/08:30pm 6.7 3.5 2.8 76 1.7 SE 9 15 5 8 1028.0 1028.2 0.0
20/08:00pm 7.2 3.5 2.3 71 2.1 ESE 11 17 6 9 1027.5 1027.6 0.0
20/07:30pm 8.8 4.8 2.6 65 2.7 E 13 19 7 10 1026.9 1027.0 0.0
20/07:00pm 8.0 4.8 3.1 71 2.1 ESE 9 13 5 7 1026.2 1026.4 0.0
20/06:30pm 8.9 5.3 3.1 67 2.6 E 11 17 6 9 1025.5 1025.6 0.0
20/06:00pm 11.0 6.0 3.5 60 3.4 E 19 24 10 13 1024.9 1024.9 0.0
20/05:30pm 12.7 7.8 3.9 55 4.1 E 19 24 10 13 1024.1 1024.2 0.0
20/05:00pm 15.5 12.1 -0.7 33 7.0 S 7 9 4 5 1023.5 1023.5 0.0
20/04:30pm 15.9 12.2 -3.1 27 7.9 SSW 7 13 4 7 1023.3 1023.3 0.0

Other Formats:

Comma delimited format used in spreadsheet applications
http://www.bom.gov.au/fwo/IDN60801/IDN60801.95716.axf

JavaScript Object Notation format (JSON) in row-major order
http://www.bom.gov.au/fwo/IDN60801/IDN60801.95716.json